createdAt,value
2023-11-23T00:00:11.889Z,7.27
2023-11-23T00:02:40.104Z,7.24
2023-11-23T00:05:08.745Z,7.25
2023-11-23T00:07:36.077Z,7.32
2023-11-23T00:10:05.635Z,7.40
2023-11-23T00:12:32.495Z,7.39
2023-11-23T00:15:01.960Z,7.42
2023-11-23T00:17:31.755Z,7.43
2023-11-23T00:19:59.061Z,7.46
2023-11-23T00:22:27.480Z,7.46
2023-11-23T00:24:57.172Z,7.47
2023-11-23T00:27:24.383Z,7.39
2023-11-23T00:29:52.638Z,7.35
2023-11-23T00:32:20.546Z,7.38
2023-11-23T00:34:47.686Z,7.51
2023-11-23T00:37:14.833Z,7.47
2023-11-23T00:39:41.745Z,7.53
2023-11-23T00:42:08.791Z,7.50
2023-11-23T00:44:35.832Z,7.52
2023-11-23T00:47:02.648Z,7.44
2023-11-23T00:49:29.662Z,7.45
2023-11-23T00:51:56.730Z,7.48
2023-11-23T00:54:23.877Z,7.53
2023-11-23T00:56:50.730Z,7.53
2023-11-23T00:59:17.468Z,7.50
2023-11-23T01:01:46.130Z,7.52
2023-11-23T01:04:14.615Z,7.48
2023-11-23T01:06:43.208Z,7.44
2023-11-23T01:09:11.025Z,7.40
2023-11-23T01:11:38.042Z,7.35
2023-11-23T01:14:05.034Z,7.36
2023-11-23T01:16:32.231Z,7.37
2023-11-23T01:18:58.986Z,7.39
2023-11-23T01:21:25.897Z,7.47
2023-11-23T01:23:52.953Z,7.53
2023-11-23T01:26:20.041Z,7.61
2023-11-23T01:28:46.884Z,7.67
2023-11-23T01:31:14.460Z,7.72
2023-11-23T01:33:41.630Z,7.72
2023-11-23T01:36:08.677Z,7.71
2023-11-23T01:38:35.571Z,7.72
2023-11-23T01:41:03.587Z,7.69
2023-11-23T01:43:32.647Z,7.63
2023-11-23T01:45:59.957Z,7.58
2023-11-23T01:48:28.234Z,7.62
2023-11-23T01:50:55.842Z,7.61
2023-11-23T01:53:23.482Z,7.62
2023-11-23T01:55:51.011Z,7.60
2023-11-23T01:58:19.353Z,7.56
2023-11-23T02:00:46.735Z,7.58
2023-11-23T02:03:13.707Z,7.58
2023-11-23T02:05:40.610Z,7.53
2023-11-23T02:08:08.604Z,7.58
2023-11-23T02:10:35.548Z,7.67
2023-11-23T02:13:02.507Z,7.60
2023-11-23T02:15:29.400Z,7.54
2023-11-23T02:18:08.672Z,7.57
2023-11-23T02:20:35.974Z,7.61
2023-11-23T02:23:02.900Z,7.63
2023-11-23T02:25:29.992Z,7.63
2023-11-23T02:27:56.948Z,7.62
2023-11-23T02:30:23.902Z,7.64
2023-11-23T02:32:51.659Z,7.67
2023-11-23T02:35:22.265Z,7.65
2023-11-23T02:37:49.406Z,7.65
2023-11-23T02:40:16.869Z,7.67
2023-11-23T02:42:46.314Z,7.70
2023-11-23T02:45:14.447Z,7.69
2023-11-23T02:47:41.969Z,7.67
2023-11-23T02:50:10.505Z,7.68
2023-11-23T02:52:37.354Z,7.66
2023-11-23T02:55:04.457Z,7.63
2023-11-23T02:57:31.416Z,7.65
2023-11-23T02:59:58.547Z,7.68
2023-11-23T03:02:27.248Z,7.68
2023-11-23T03:04:55.421Z,7.70
2023-11-23T03:07:22.108Z,7.73
2023-11-23T03:09:49.134Z,7.71
2023-11-23T03:12:16.019Z,7.64
2023-11-23T03:14:42.868Z,7.71
2023-11-23T03:17:09.724Z,7.71
2023-11-23T03:19:37.638Z,7.67
2023-11-23T03:22:05.269Z,7.67
2023-11-23T03:24:32.327Z,7.57
2023-11-23T03:26:59.936Z,7.62
2023-11-23T03:29:27.578Z,7.61
2023-11-23T03:31:54.476Z,7.61
2023-11-23T03:34:24.866Z,7.66
2023-11-23T03:36:51.946Z,7.67
2023-11-23T03:39:19.799Z,7.63
2023-11-23T03:41:47.219Z,7.64
2023-11-23T03:44:14.111Z,7.65
2023-11-23T03:46:41.734Z,7.65
2023-11-23T03:49:08.667Z,7.64
2023-11-23T03:51:36.046Z,7.64
2023-11-23T03:54:04.020Z,7.65
2023-11-23T03:56:31.501Z,7.72
2023-11-23T03:58:58.445Z,7.64
2023-11-23T04:01:25.153Z,7.68
2023-11-23T04:03:52.223Z,7.65
2023-11-23T04:06:19.182Z,7.65
2023-11-23T04:08:46.314Z,7.68
2023-11-23T04:11:13.189Z,7.73
2023-11-23T04:13:40.272Z,7.77
2023-11-23T04:16:07.162Z,7.73
2023-11-23T04:18:34.197Z,7.69
2023-11-23T04:21:02.050Z,7.68
2023-11-23T04:23:29.147Z,7.64
2023-11-23T04:25:55.963Z,7.68
2023-11-23T04:28:22.796Z,7.67
2023-11-23T04:30:49.622Z,7.68
2023-11-23T04:33:16.536Z,7.69
2023-11-23T04:35:43.583Z,7.81
2023-11-23T04:38:10.604Z,7.74
2023-11-23T04:40:37.507Z,7.78
2023-11-23T04:43:06.650Z,7.74
2023-11-23T04:45:33.681Z,7.73
2023-11-23T04:48:03.223Z,7.80
2023-11-23T04:50:30.385Z,7.80
2023-11-23T04:52:58.636Z,7.76
2023-11-23T04:55:26.621Z,7.73
2023-11-23T04:57:53.391Z,7.77
2023-11-23T05:00:26.194Z,7.68
2023-11-23T05:02:57.795Z,7.66
2023-11-23T05:05:24.728Z,7.66
2023-11-23T05:07:51.746Z,7.66
2023-11-23T05:10:19.559Z,7.68
2023-11-23T05:12:51.724Z,7.71
2023-11-23T05:15:20.470Z,7.76
2023-11-23T05:17:47.843Z,7.79
2023-11-23T05:20:14.983Z,7.86
2023-11-23T05:22:41.773Z,7.88
2023-11-23T05:25:09.308Z,7.80
2023-11-23T05:27:36.601Z,7.79
2023-11-23T05:30:04.023Z,7.81
2023-11-23T05:32:30.944Z,7.74
2023-11-23T05:34:57.858Z,7.71
2023-11-23T05:37:27.867Z,7.72
2023-11-23T05:39:54.694Z,7.65
2023-11-23T05:42:21.756Z,7.65
2023-11-23T05:44:49.096Z,7.65
2023-11-23T05:47:16.053Z,7.67
2023-11-23T05:49:45.807Z,7.72
2023-11-23T05:52:13.229Z,7.72
2023-11-23T05:54:40.200Z,7.73
2023-11-23T05:57:07.253Z,7.73
2023-11-23T05:59:34.264Z,7.70
2023-11-23T06:02:04.265Z,7.71
2023-11-23T06:04:31.488Z,7.73
2023-11-23T06:06:58.729Z,7.71
2023-11-23T06:09:25.900Z,7.73
2023-11-23T06:11:52.924Z,7.73
2023-11-23T06:14:19.867Z,7.72
2023-11-23T06:16:46.925Z,7.72
2023-11-23T06:19:13.762Z,7.74
2023-11-23T06:21:40.553Z,7.72
2023-11-23T06:24:10.321Z,7.73
2023-11-23T06:26:37.191Z,7.77
2023-11-23T06:29:03.983Z,7.83
2023-11-23T06:31:30.978Z,7.87
2023-11-23T06:33:58.811Z,7.87
2023-11-23T06:36:25.953Z,7.85
2023-11-23T06:38:52.964Z,7.86
2023-11-23T06:41:21.086Z,7.81
2023-11-23T06:43:49.437Z,7.81
2023-11-23T06:46:17.546Z,7.81
2023-11-23T06:48:48.260Z,7.86
2023-11-23T06:51:15.212Z,7.84
2023-11-23T06:53:46.403Z,7.84
2023-11-23T06:56:17.882Z,7.83
2023-11-23T06:58:48.957Z,7.84
2023-11-23T07:01:19.845Z,7.86
2023-11-23T07:03:47.072Z,7.90
2023-11-23T07:06:15.498Z,7.89
2023-11-23T07:08:43.100Z,7.91
2023-11-23T07:11:10.085Z,7.87
2023-11-23T07:13:37.023Z,7.87
2023-11-23T07:16:04.523Z,7.83
2023-11-23T07:18:32.110Z,7.87
2023-11-23T07:20:59.281Z,7.88
2023-11-23T07:23:26.872Z,7.86
2023-11-23T07:25:54.297Z,7.88
2023-11-23T07:28:28.517Z,7.91
2023-11-23T07:30:58.288Z,7.85
2023-11-23T07:33:31.021Z,7.80
2023-11-23T07:35:58.106Z,7.79
2023-11-23T07:38:27.092Z,7.83
2023-11-23T07:40:54.117Z,7.80
2023-11-23T07:43:21.210Z,7.78
2023-11-23T07:45:48.066Z,7.81
2023-11-23T07:48:15.454Z,7.83
2023-11-23T07:50:42.730Z,7.91
2023-11-23T07:53:09.965Z,7.90
2023-11-23T07:55:38.252Z,7.90
2023-11-23T07:58:08.672Z,7.87
2023-11-23T08:00:39.114Z,7.88
2023-11-23T08:03:06.958Z,7.87
2023-11-23T08:05:36.228Z,7.92
2023-11-23T08:08:04.372Z,7.89
2023-11-23T08:10:31.785Z,7.86
2023-11-23T08:12:59.678Z,7.87
2023-11-23T08:15:31.572Z,7.90
2023-11-23T08:18:05.311Z,7.87
2023-11-23T08:20:38.104Z,7.89
2023-11-23T08:23:06.171Z,7.93
2023-11-23T08:25:33.215Z,8.02
2023-11-23T08:28:00.228Z,8.05
2023-11-23T08:30:27.263Z,8.04
2023-11-23T08:32:54.526Z,8.03
2023-11-23T08:35:21.707Z,8.03
2023-11-23T08:37:49.540Z,8.06
2023-11-23T08:40:16.968Z,8.08
2023-11-23T08:42:47.076Z,8.11
2023-11-23T08:45:14.087Z,8.19
2023-11-23T08:47:41.019Z,8.29
2023-11-23T08:50:11.893Z,8.36
2023-11-23T08:52:40.292Z,8.44
2023-11-23T08:55:10.207Z,8.42
2023-11-23T08:57:37.721Z,8.43
2023-11-23T09:00:15.149Z,8.48
2023-11-23T09:02:43.656Z,8.49
2023-11-23T09:05:10.993Z,8.53
2023-11-23T09:07:40.274Z,8.59
2023-11-23T09:10:08.528Z,8.61
2023-11-23T09:12:35.541Z,8.65
2023-11-23T09:15:02.486Z,8.65
2023-11-23T09:17:34.736Z,8.66
2023-11-23T09:20:01.764Z,8.71
2023-11-23T09:22:29.160Z,8.78
2023-11-23T09:24:56.724Z,8.81
2023-11-23T09:27:24.538Z,8.85
2023-11-23T09:29:56.052Z,8.89
2023-11-23T09:32:23.017Z,8.97
2023-11-23T09:34:50.774Z,9.01
2023-11-23T09:37:17.736Z,9.15
2023-11-23T09:39:46.833Z,9.29
2023-11-23T09:42:18.000Z,9.28
2023-11-23T09:44:46.651Z,9.30
2023-11-23T09:47:15.346Z,9.31
2023-11-23T09:49:51.517Z,9.33
2023-11-23T09:52:18.518Z,9.35
2023-11-23T09:54:47.918Z,9.47
2023-11-23T09:57:18.352Z,9.40
2023-11-23T09:59:45.145Z,9.44
2023-11-23T10:02:15.211Z,9.44
2023-11-23T10:04:42.000Z,9.38
2023-11-23T10:07:09.834Z,9.34
2023-11-23T10:09:37.676Z,9.35
2023-11-23T10:12:04.813Z,9.39
2023-11-23T10:14:31.753Z,9.39
2023-11-23T10:16:58.710Z,9.40
2023-11-23T10:19:25.708Z,9.48
2023-11-23T10:22:04.808Z,9.44
2023-11-23T10:24:32.181Z,9.49
2023-11-23T10:27:00.096Z,9.51
2023-11-23T10:29:30.390Z,9.58
2023-11-23T10:32:01.095Z,9.59
2023-11-23T10:34:31.361Z,9.64
2023-11-23T10:36:59.453Z,9.68
2023-11-23T10:39:28.963Z,9.77
2023-11-23T10:41:56.766Z,9.86
2023-11-23T10:44:25.019Z,9.86
2023-11-23T10:46:54.908Z,9.83
2023-11-23T10:49:24.249Z,9.83
2023-11-23T10:51:52.779Z,9.88
2023-11-23T10:54:19.535Z,9.91
2023-11-23T10:56:47.992Z,9.86
2023-11-23T10:59:22.180Z,9.90
2023-11-23T11:01:56.051Z,10.00
2023-11-23T11:04:24.195Z,10.03
2023-11-23T11:06:55.687Z,10.02
2023-11-23T11:09:30.146Z,10.01
2023-11-23T11:12:02.330Z,9.96
2023-11-23T11:14:37.553Z,9.99
2023-11-23T11:17:08.285Z,9.96
2023-11-23T11:20:11.494Z,9.95
2023-11-23T11:22:38.377Z,9.94
2023-11-23T11:25:08.861Z,9.97
2023-11-23T11:27:50.305Z,9.99
2023-11-23T11:30:25.110Z,10.02
2023-11-23T11:32:53.682Z,10.01
2023-11-23T11:35:21.934Z,10.03
2023-11-23T11:37:48.825Z,10.08
2023-11-23T11:40:17.066Z,10.10
2023-11-23T11:42:44.267Z,10.06
2023-11-23T11:45:13.945Z,10.05
2023-11-23T11:47:42.193Z,10.15
2023-11-23T11:50:10.316Z,10.20
2023-11-23T11:52:38.434Z,10.20
2023-11-23T11:55:06.763Z,10.21
2023-11-23T11:57:41.154Z,10.18
2023-11-23T12:00:09.172Z,10.23
2023-11-23T12:02:35.953Z,10.24
2023-11-23T12:05:05.811Z,10.19
2023-11-23T12:07:33.000Z,10.29
2023-11-23T12:10:02.742Z,10.27
2023-11-23T12:12:29.800Z,10.27
2023-11-23T12:14:58.213Z,10.26
2023-11-23T12:17:25.298Z,10.31
2023-11-23T12:19:56.296Z,10.22
2023-11-23T12:22:25.408Z,10.19
2023-11-23T12:24:53.467Z,10.20
2023-11-23T12:27:22.498Z,10.25
2023-11-23T12:29:50.035Z,10.25
2023-11-23T12:32:18.375Z,10.26
2023-11-23T12:34:45.485Z,10.26
2023-11-23T12:37:13.010Z,10.21
2023-11-23T12:39:43.508Z,10.18
2023-11-23T12:42:10.306Z,10.16
2023-11-23T12:44:37.248Z,10.13
2023-11-23T12:47:05.114Z,10.05
2023-11-23T12:49:32.142Z,9.93
2023-11-23T12:51:59.952Z,9.81
2023-11-23T12:54:26.801Z,9.79
2023-11-23T12:56:53.948Z,9.73
2023-11-23T12:59:23.790Z,9.69
2023-11-23T13:01:52.154Z,9.62
2023-11-23T13:04:21.078Z,9.61
2023-11-23T13:06:48.480Z,9.54
2023-11-23T13:09:26.686Z,9.51
2023-11-23T13:11:56.606Z,9.52
2023-11-23T13:14:23.823Z,9.56
2023-11-23T13:16:51.039Z,9.52
2023-11-23T13:19:30.554Z,9.49
2023-11-23T13:22:05.668Z,9.44
2023-11-23T13:24:33.979Z,9.44
2023-11-23T13:59:50.658Z,9.42
2023-11-23T14:03:00.359Z,9.37
2023-11-23T14:05:27.742Z,9.29
2023-11-23T14:07:57.305Z,9.26
2023-11-23T14:10:25.617Z,9.23
2023-11-23T14:12:52.982Z,9.18
2023-11-23T14:15:20.786Z,9.16
2023-11-23T14:17:48.304Z,9.20
2023-11-23T14:20:18.204Z,9.11
2023-11-23T14:22:51.148Z,9.08
2023-11-23T14:25:18.663Z,9.05
2023-11-23T14:27:45.966Z,9.02
2023-11-23T14:30:14.210Z,8.99
2023-11-23T14:32:44.440Z,9.00
2023-11-23T14:35:14.820Z,8.97
2023-11-23T14:37:43.803Z,9.00
2023-11-23T14:43:23.696Z,8.89
2023-11-23T14:45:51.305Z,8.89
2023-11-23T14:48:19.854Z,8.87
2023-11-23T14:50:50.617Z,8.92
2023-11-23T14:53:17.877Z,8.90
2023-11-23T14:55:45.056Z,8.89
2023-11-23T14:58:15.399Z,8.86
2023-11-23T15:00:43.949Z,8.91
2023-11-23T15:03:11.862Z,8.92
2023-11-23T15:05:38.795Z,8.85
2023-11-23T15:08:05.921Z,8.86
2023-11-23T15:10:32.980Z,8.79
2023-11-23T15:13:00.061Z,8.79
2023-11-23T15:15:31.471Z,8.75
2023-11-23T15:18:01.701Z,8.61
2023-11-23T15:20:31.840Z,8.54
2023-11-23T15:22:58.847Z,8.50
2023-11-23T15:25:27.557Z,8.47
2023-11-23T15:27:56.052Z,8.42
2023-11-23T15:30:23.524Z,8.41
2023-11-23T15:32:54.245Z,8.36
2023-11-23T15:35:21.688Z,8.31
2023-11-23T15:37:50.791Z,8.33
2023-11-23T15:40:18.516Z,8.29
2023-11-23T15:42:46.714Z,8.20
2023-11-23T15:45:15.352Z,8.13
2023-11-23T15:47:43.383Z,8.07
2023-11-23T15:50:11.597Z,7.99
2023-11-23T15:52:39.700Z,7.89
2023-11-23T15:55:10.141Z,7.80
2023-11-23T15:57:38.147Z,7.72
2023-11-23T16:00:08.197Z,7.70
2023-11-23T16:02:42.164Z,7.61
2023-11-23T16:05:12.368Z,7.55
2023-11-23T16:07:39.299Z,7.51
2023-11-23T16:10:07.321Z,7.41
2023-11-23T16:12:34.128Z,7.34
2023-11-23T16:15:02.816Z,7.23
2023-11-23T16:17:29.949Z,7.16
2023-11-23T16:19:56.940Z,7.14
2023-11-23T16:22:24.219Z,7.18
2023-11-23T16:24:52.929Z,7.13
2023-11-23T16:27:20.110Z,7.08
2023-11-23T16:29:49.545Z,7.07
2023-11-23T16:32:16.691Z,7.11
2023-11-23T16:34:43.918Z,7.11
2023-11-23T16:37:12.663Z,7.12
2023-11-23T16:39:40.104Z,7.13
2023-11-23T16:42:15.846Z,7.10
2023-11-23T16:44:43.069Z,7.15
2023-11-23T16:47:10.007Z,7.12
2023-11-23T16:49:37.073Z,7.19
2023-11-23T16:52:04.357Z,7.24
2023-11-23T16:54:34.484Z,7.33
2023-11-23T16:57:04.966Z,7.33
2023-11-23T16:59:34.983Z,7.25
2023-11-23T17:02:02.097Z,7.24
2023-11-23T17:04:29.116Z,7.21
2023-11-23T17:06:56.251Z,7.24
2023-11-23T17:10:19.548Z,7.36
2023-11-23T17:12:47.004Z,7.44
2023-11-23T17:15:14.233Z,7.40
2023-11-23T17:17:46.573Z,7.37
2023-11-23T17:20:30.840Z,7.37
2023-11-23T17:23:02.979Z,7.52
2023-11-23T17:25:40.509Z,7.52
2023-11-23T17:28:08.576Z,7.58
2023-11-23T17:30:35.706Z,7.61
2023-11-23T17:33:03.162Z,7.53
2023-11-23T17:35:30.968Z,7.51
2023-11-23T17:37:58.877Z,7.62
2023-11-23T17:40:26.314Z,7.70
2023-11-23T17:42:53.504Z,7.63
2023-11-23T17:45:20.945Z,7.63
2023-11-23T17:47:48.277Z,7.70
2023-11-23T17:50:15.875Z,7.71
2023-11-23T17:52:43.171Z,7.74
2023-11-23T17:55:10.262Z,7.73
2023-11-23T18:02:07.322Z,7.80
2023-11-23T18:04:34.559Z,7.90
2023-11-23T18:07:03.082Z,7.93
2023-11-23T18:09:31.832Z,7.97
2023-11-23T18:12:01.399Z,7.96
2023-11-23T18:18:23.932Z,7.98
2023-11-23T18:25:14.143Z,8.00
2023-11-23T18:27:41.905Z,8.03
2023-11-23T18:30:09.487Z,7.97
2023-11-23T18:32:39.640Z,7.94
2023-11-23T18:35:06.845Z,8.00
2023-11-23T18:38:07.952Z,8.02
2023-11-23T18:41:12.512Z,8.03
2023-11-23T18:43:42.985Z,8.03
2023-11-23T18:46:10.119Z,8.02
2023-11-23T18:48:37.446Z,8.00
2023-11-23T18:51:05.656Z,8.02
2023-11-23T18:53:32.828Z,7.98
2023-11-23T18:56:00.057Z,7.96
2023-11-23T18:58:27.324Z,7.96
2023-11-23T19:00:54.679Z,7.93
2023-11-23T19:03:22.109Z,7.92
2023-11-23T19:05:49.425Z,7.89
2023-11-23T19:08:17.121Z,7.86
2023-11-23T19:10:47.366Z,7.88
2023-11-23T19:13:15.133Z,7.89
2023-11-23T19:15:42.886Z,7.96
2023-11-23T19:18:12.098Z,7.96
2023-11-23T19:20:41.333Z,7.94
2023-11-23T19:23:08.918Z,7.94
2023-11-23T19:25:36.682Z,7.96
2023-11-23T19:28:06.348Z,7.96
2023-11-23T19:30:33.987Z,7.90
2023-11-23T19:33:06.903Z,7.92
2023-11-23T19:35:36.047Z,7.95
2023-11-23T19:38:05.512Z,7.96
2023-11-23T19:41:13.986Z,7.98
2023-11-23T19:43:57.311Z,7.96
2023-11-23T19:46:24.917Z,7.95
2023-11-23T19:48:52.458Z,7.93
2023-11-23T19:51:23.941Z,7.86
2023-11-23T19:53:56.519Z,7.80
2023-11-23T19:56:26.150Z,7.76
2023-11-23T19:58:54.104Z,7.81
2023-11-23T20:01:21.437Z,7.77
2023-11-23T20:03:49.032Z,7.76
2023-11-23T20:06:16.184Z,7.72
2023-11-23T20:09:13.306Z,7.71
2023-11-23T20:11:41.253Z,7.69
2023-11-23T20:14:08.190Z,7.66
2023-11-23T20:16:35.467Z,7.72
2023-11-23T20:27:00.341Z,7.57
2023-11-23T20:29:27.392Z,7.56
2023-11-23T20:31:54.258Z,7.53
2023-11-23T20:34:38.769Z,7.47
2023-11-23T20:37:05.891Z,7.44
2023-11-23T20:39:34.195Z,7.45
2023-11-23T20:42:01.333Z,7.42
2023-11-23T20:44:28.572Z,7.42
2023-11-23T20:46:57.669Z,7.44
2023-11-23T20:49:26.491Z,7.44
2023-11-23T20:51:54.200Z,7.47
2023-11-23T20:54:21.521Z,7.49
2023-11-23T20:56:58.364Z,7.49
2023-11-23T20:59:25.827Z,7.44
2023-11-23T21:01:53.625Z,7.47
2023-11-23T21:04:26.194Z,7.42
2023-11-23T21:07:01.579Z,7.38
2023-11-23T21:09:30.340Z,7.36
2023-11-23T21:12:04.383Z,7.41
2023-11-23T21:14:34.197Z,7.41
2023-11-23T21:17:01.705Z,7.42
2023-11-23T21:19:29.109Z,7.34
2023-11-23T21:21:56.500Z,7.31
2023-11-23T21:24:23.821Z,7.31
2023-11-23T21:26:51.098Z,7.28
2023-11-23T21:29:18.154Z,7.30
2023-11-23T21:31:45.511Z,7.25
2023-11-23T21:34:12.452Z,7.23
2023-11-23T21:36:42.869Z,7.20
2023-11-23T21:39:10.323Z,7.25
2023-11-23T21:41:37.276Z,7.25
2023-11-23T21:44:04.487Z,7.20
2023-11-23T21:46:31.372Z,7.23
2023-11-23T21:48:58.321Z,7.22
2023-11-23T21:51:29.292Z,7.29
2023-11-23T21:53:58.034Z,7.19
2023-11-23T21:56:25.307Z,7.15
2023-11-23T21:58:52.307Z,7.13
2023-11-23T22:01:19.420Z,7.17
2023-11-23T22:03:51.371Z,7.17
2023-11-23T22:06:19.215Z,7.17
2023-11-23T22:08:46.131Z,7.18
2023-11-23T22:11:14.146Z,7.07
2023-11-23T22:13:44.652Z,7.03
2023-11-23T22:16:12.249Z,7.06
2023-11-23T22:18:39.463Z,6.99
2023-11-23T22:21:06.749Z,6.98
2023-11-23T22:23:34.440Z,6.95
2023-11-23T22:26:02.286Z,7.00
2023-11-23T22:28:29.492Z,7.04
2023-11-23T22:30:57.130Z,7.01
2023-11-23T22:33:25.680Z,6.99
2023-11-23T22:35:53.132Z,7.01
2023-11-23T22:38:20.209Z,6.96
2023-11-23T22:40:47.252Z,6.95
2023-11-23T22:43:15.639Z,6.99
2023-11-23T22:45:42.936Z,7.02
2023-11-23T22:48:10.264Z,7.03
2023-11-23T22:50:37.302Z,7.03
2023-11-23T22:53:04.084Z,7.07
2023-11-23T22:55:31.276Z,7.15
2023-11-23T22:57:58.353Z,7.08
2023-11-23T23:00:29.407Z,7.06
2023-11-23T23:02:56.463Z,7.08
2023-11-23T23:05:26.603Z,6.95
2023-11-23T23:07:58.169Z,6.95
2023-11-23T23:10:28.469Z,6.87
2023-11-23T23:12:56.588Z,6.80
2023-11-23T23:15:24.241Z,6.75
2023-11-23T23:17:53.028Z,6.61
2023-11-23T23:20:20.490Z,6.58
2023-11-23T23:22:47.424Z,6.42
2023-11-23T23:25:14.840Z,6.44
2023-11-23T23:27:43.672Z,6.36
2023-11-23T23:30:12.624Z,6.45
2023-11-23T23:32:40.901Z,6.41
2023-11-23T23:35:11.356Z,6.36
2023-11-23T23:37:41.466Z,6.42
2023-11-23T23:40:10.651Z,6.40
2023-11-23T23:42:38.210Z,6.34
2023-11-23T23:45:06.174Z,6.29
2023-11-23T23:47:33.146Z,6.30
2023-11-23T23:49:59.960Z,6.23
2023-11-23T23:52:27.094Z,6.23
2023-11-23T23:54:54.149Z,6.22
2023-11-23T23:57:21.311Z,6.23
2023-11-23T23:59:48.237Z,6.22
